createdAt,value
2019-03-02T00:00:13.243Z,98.90
2019-03-02T00:02:41.679Z,99.00
2019-03-02T00:05:10.132Z,99.10
2019-03-02T00:07:38.533Z,99.10
2019-03-02T00:10:09.954Z,99.20
2019-03-02T00:12:39.055Z,99.20
2019-03-02T00:15:09.042Z,99.20
2019-03-02T00:17:37.459Z,99.30
2019-03-02T00:20:06.728Z,99.30
2019-03-02T00:22:35.135Z,99.40
2019-03-02T00:25:04.445Z,99.40
2019-03-02T00:27:32.927Z,99.60
2019-03-02T00:30:01.350Z,99.40
2019-03-02T00:32:29.848Z,99.60
2019-03-02T00:34:58.291Z,99.60
2019-03-02T00:37:29.688Z,99.90
2019-03-02T00:39:57.147Z,99.90
2019-03-02T00:42:25.558Z,99.90
2019-03-02T00:44:53.979Z,99.90
2019-03-02T00:47:22.422Z,99.90
2019-03-02T00:49:50.858Z,99.90
2019-03-02T00:52:20.492Z,99.90
2019-03-02T00:54:57.765Z,99.90
2019-03-02T00:57:19.715Z,99.90
2019-03-02T00:59:48.193Z,99.90
2019-03-02T01:02:16.616Z,99.90
2019-03-02T01:04:45.062Z,99.90
2019-03-02T01:07:13.499Z,99.90
2019-03-02T01:09:43.617Z,99.90
2019-03-02T01:12:12.135Z,99.90
2019-03-02T01:14:40.599Z,99.90
2019-03-02T01:17:09.006Z,99.90
2019-03-02T01:19:37.441Z,99.90
2019-03-02T01:22:05.855Z,99.90
2019-03-02T01:24:35.672Z,99.90
2019-03-02T01:27:04.510Z,99.90
2019-03-02T01:29:32.942Z,99.90
2019-03-02T01:32:01.354Z,99.90
2019-03-02T01:34:29.771Z,99.90
2019-03-02T01:36:58.215Z,99.90
2019-03-02T01:39:29.241Z,99.90
2019-03-02T01:41:56.766Z,99.90
2019-03-02T01:44:25.211Z,99.90
2019-03-02T01:46:53.814Z,99.90
2019-03-02T01:49:22.252Z,99.90
2019-03-02T01:51:50.770Z,99.90
2019-03-02T01:54:21.340Z,99.90
2019-03-02T01:56:49.359Z,99.90
2019-03-02T01:59:17.790Z,99.90
2019-03-02T02:01:46.198Z,99.90
2019-03-02T02:04:14.624Z,99.90
2019-03-02T02:06:43.681Z,99.90
2019-03-02T02:09:12.327Z,99.90
2019-03-02T02:11:41.032Z,99.90
2019-03-02T02:14:09.463Z,99.90
2019-03-02T02:16:38.814Z,99.90
2019-03-02T02:19:08.071Z,99.90
2019-03-02T02:21:36.505Z,99.90
2019-03-02T02:24:05.476Z,99.90
2019-03-02T02:26:33.925Z,99.90
2019-03-02T02:29:04.564Z,99.90
2019-03-02T02:31:32.484Z,99.90
2019-03-02T02:34:00.935Z,99.90
2019-03-02T02:36:29.358Z,99.90
2019-03-02T02:38:57.792Z,99.90
2019-03-02T02:41:26.266Z,99.90
2019-03-02T02:43:59.016Z,99.90
2019-03-02T02:46:27.311Z,99.90
2019-03-02T02:48:55.003Z,99.90
2019-03-02T02:51:23.420Z,99.90
2019-03-02T02:53:51.840Z,99.90
2019-03-02T02:56:21.434Z,99.90
2019-03-02T02:58:55.673Z,99.90
2019-03-02T03:01:20.198Z,99.90
2019-03-02T03:03:48.886Z,99.90
2019-03-02T03:06:17.319Z,99.90
2019-03-02T03:08:45.794Z,99.90
2019-03-02T03:11:14.248Z,99.90
2019-03-02T03:13:42.721Z,99.90
2019-03-02T03:16:16.023Z,99.90
2019-03-02T03:18:41.539Z,99.90
2019-03-02T03:21:10.523Z,99.90
2019-03-02T03:23:39.016Z,99.90
2019-03-02T03:26:07.439Z,99.90
2019-03-02T03:28:35.873Z,99.90
2019-03-02T03:31:04.380Z,99.90
2019-03-02T03:33:41.424Z,99.90
2019-03-02T03:36:02.994Z,99.90
2019-03-02T03:38:31.435Z,99.90
2019-03-02T03:41:04.683Z,99.90
2019-03-02T03:43:30.204Z,99.90
2019-03-02T03:45:58.687Z,99.90
2019-03-02T03:48:27.119Z,99.90
2019-03-02T03:50:55.640Z,99.90
2019-03-02T03:53:26.527Z,99.90
2019-03-02T03:55:54.247Z,99.90
2019-03-02T03:58:22.658Z,99.90
2019-03-02T04:00:51.083Z,99.90
2019-03-02T04:03:19.555Z,99.90
2019-03-02T04:05:48.747Z,99.90
2019-03-02T04:08:17.253Z,99.90
2019-03-02T04:10:45.686Z,99.90
2019-03-02T04:13:14.080Z,99.90
2019-03-02T04:15:43.562Z,99.90
2019-03-02T04:18:34.489Z,99.90
2019-03-02T04:21:02.913Z,99.90
2019-03-02T04:23:31.382Z,99.90
2019-03-02T04:25:59.798Z,99.90
2019-03-02T04:28:31.375Z,99.90
2019-03-02T04:30:58.353Z,99.90
2019-03-02T04:33:26.757Z,99.90
2019-03-02T04:35:55.184Z,99.90
2019-03-02T04:38:23.618Z,99.90
2019-03-02T04:40:52.031Z,99.90
2019-03-02T04:43:20.453Z,99.90
2019-03-02T04:45:48.860Z,99.90
2019-03-02T04:48:17.296Z,99.90
2019-03-02T04:50:45.695Z,99.90
2019-03-02T04:53:14.140Z,99.90
2019-03-02T04:55:45.745Z,99.90
2019-03-02T04:58:13.014Z,99.90
2019-03-02T05:00:41.502Z,99.90
2019-03-02T05:03:09.928Z,99.90
2019-03-02T05:05:40.612Z,99.90
2019-03-02T05:08:08.721Z,99.90
2019-03-02T05:10:37.144Z,99.90
2019-03-02T05:13:05.548Z,99.90
2019-03-02T05:15:33.976Z,99.90
2019-03-02T05:18:02.387Z,99.90
2019-03-02T05:20:32.566Z,99.90
2019-03-02T05:23:06.921Z,99.90
2019-03-02T05:25:35.358Z,99.90
2019-03-02T05:28:07.292Z,99.90
2019-03-02T05:30:34.395Z,99.90
2019-03-02T05:33:02.793Z,99.90
2019-03-02T05:35:31.224Z,99.90
2019-03-02T05:37:59.673Z,99.90
2019-03-02T05:40:28.884Z,99.90
2019-03-02T05:42:57.356Z,99.90
2019-03-02T05:45:25.793Z,99.90
2019-03-02T05:47:54.196Z,99.90
2019-03-02T05:50:22.641Z,99.90
2019-03-02T05:52:54.208Z,99.90
2019-03-02T05:55:21.177Z,99.90
2019-03-02T05:57:49.572Z,99.90
2019-03-02T06:00:19.984Z,99.90
2019-03-02T06:02:48.848Z,99.90
2019-03-02T06:05:17.282Z,99.90
2019-03-02T06:07:45.686Z,99.90
2019-03-02T06:10:14.964Z,99.90
2019-03-02T06:12:43.468Z,99.90
2019-03-02T06:15:13.998Z,99.90
2019-03-02T06:17:42.497Z,99.90
2019-03-02T06:20:12.722Z,99.90
2019-03-02T06:22:41.192Z,99.90
2019-03-02T06:25:20.252Z,99.90
2019-03-02T06:27:47.278Z,99.90
2019-03-02T06:30:19.380Z,99.90
2019-03-02T06:32:47.812Z,99.90
2019-03-02T06:35:16.202Z,99.90
2019-03-02T06:37:44.688Z,99.90
2019-03-02T06:40:16.223Z,99.90
2019-03-02T06:42:45.648Z,99.90
2019-03-02T06:45:15.612Z,99.90
2019-03-02T06:47:44.345Z,99.90
2019-03-02T06:50:17.528Z,99.90
2019-03-02T06:52:46.219Z,99.90
2019-03-02T06:55:15.733Z,99.90
2019-03-02T06:57:46.215Z,99.90
2019-03-02T07:00:16.533Z,99.90
2019-03-02T07:02:44.966Z,99.90
2019-03-02T07:05:13.541Z,99.90
2019-03-02T07:07:41.973Z,99.90
2019-03-02T07:10:13.113Z,99.90
2019-03-02T07:12:41.744Z,99.90
2019-03-02T07:15:13.370Z,99.90
2019-03-02T07:17:46.453Z,99.90
2019-03-02T07:20:23.820Z,99.90
2019-03-02T07:22:52.612Z,99.90
2019-03-02T07:25:21.668Z,99.90
2019-03-02T07:27:50.170Z,99.90
2019-03-02T07:30:18.586Z,99.90
2019-03-02T07:32:47.010Z,99.90
2019-03-02T07:35:15.854Z,99.90
2019-03-02T07:37:45.574Z,99.90
2019-03-02T07:40:14.076Z,99.90
2019-03-02T07:42:42.480Z,99.90
2019-03-02T07:45:19.093Z,99.90
2019-03-02T07:47:47.503Z,99.90
2019-03-02T07:50:16.296Z,99.90
2019-03-02T07:52:44.934Z,99.90
2019-03-02T07:55:14.861Z,99.90
2019-03-02T07:57:44.731Z,99.90
2019-03-02T08:00:20.668Z,99.90
2019-03-02T08:02:49.104Z,99.90
2019-03-02T08:05:17.557Z,99.90
2019-03-02T08:07:46.233Z,99.90
2019-03-02T08:10:14.746Z,99.90
2019-03-02T08:12:43.144Z,99.90
2019-03-02T08:15:14.350Z,99.90
2019-03-02T08:17:45.583Z,99.90
2019-03-02T08:20:16.569Z,99.90
2019-03-02T08:22:46.229Z,99.90
2019-03-02T08:25:15.427Z,99.90
2019-03-02T08:27:44.629Z,99.90
2019-03-02T08:30:15.274Z,99.90
2019-03-02T08:32:43.692Z,99.90
2019-03-02T08:35:13.954Z,99.90
2019-03-02T08:37:42.533Z,99.90
2019-03-02T08:40:19.418Z,99.90
2019-03-02T08:42:45.946Z,99.90
2019-03-02T08:45:20.668Z,99.90
2019-03-02T08:47:49.243Z,99.90
2019-03-02T08:50:19.657Z,99.90
2019-03-02T08:52:48.295Z,99.90
2019-03-02T08:55:21.783Z,99.90
2019-03-02T08:57:50.246Z,99.90
2019-03-02T09:00:25.421Z,99.90
2019-03-02T09:02:55.048Z,99.90
2019-03-02T09:05:42.936Z,99.90
2019-03-02T09:07:54.416Z,99.90
2019-03-02T09:10:23.058Z,99.90
2019-03-02T09:12:51.557Z,99.90
2019-03-02T09:15:30.162Z,99.90
2019-03-02T09:17:58.708Z,99.90
2019-03-02T09:20:27.129Z,99.90
2019-03-02T09:23:00.595Z,99.90
2019-03-02T09:25:27.762Z,99.90
2019-03-02T09:27:56.043Z,99.90
2019-03-02T09:30:24.452Z,99.90
2019-03-02T09:32:54.592Z,99.90
2019-03-02T09:35:23.044Z,99.90
2019-03-02T09:37:51.587Z,99.90
2019-03-02T09:40:21.453Z,99.90
2019-03-02T09:42:50.136Z,99.90
2019-03-02T09:45:21.849Z,99.90
2019-03-02T09:47:52.034Z,99.90
2019-03-02T09:50:24.220Z,99.90
2019-03-02T09:52:52.740Z,99.90
2019-03-02T09:55:21.276Z,99.90
2019-03-02T09:57:49.909Z,99.90
2019-03-02T10:00:23.846Z,99.90
2019-03-02T10:02:53.009Z,99.90
2019-03-02T10:05:21.440Z,99.90
2019-03-02T10:07:49.850Z,99.90
2019-03-02T10:10:18.913Z,99.70
2019-03-02T10:12:51.447Z,99.60
2019-03-02T10:15:26.607Z,99.30
2019-03-02T10:17:55.114Z,99.50
2019-03-02T10:20:23.550Z,99.70
2019-03-02T10:22:51.952Z,99.00
2019-03-02T10:25:20.362Z,99.10
2019-03-02T10:27:48.785Z,99.10
2019-03-02T10:30:22.119Z,98.40
2019-03-02T10:32:51.914Z,97.90
2019-03-02T10:35:21.548Z,97.90
2019-03-02T10:37:49.973Z,98.10
2019-03-02T10:40:22.826Z,97.90
2019-03-02T10:42:50.633Z,97.70
2019-03-02T10:45:20.011Z,97.10
2019-03-02T10:47:48.476Z,96.60
2019-03-02T10:50:25.795Z,96.60
2019-03-02T10:52:54.288Z,96.70
2019-03-02T10:55:23.560Z,96.40
2019-03-02T10:57:52.301Z,96.00
2019-03-02T11:00:31.426Z,95.80
2019-03-02T11:03:12.038Z,95.50
2019-03-02T11:05:42.237Z,95.30
2019-03-02T11:08:29.044Z,95.30
2019-03-02T11:11:08.184Z,95.20
2019-03-02T11:13:41.159Z,95.10
2019-03-02T11:16:25.782Z,94.70
2019-03-02T11:19:07.883Z,94.70
2019-03-02T11:21:39.172Z,94.10
2019-03-02T11:24:23.766Z,94.10
2019-03-02T11:26:59.380Z,94.10
2019-03-02T11:29:31.930Z,93.20
2019-03-02T11:32:20.372Z,92.90
2019-03-02T11:35:10.385Z,92.70
2019-03-02T11:37:42.238Z,91.80
2019-03-02T11:40:12.301Z,91.80
2019-03-02T11:43:00.414Z,91.80
2019-03-02T11:45:39.321Z,91.70
2019-03-02T11:48:17.279Z,91.30
2019-03-02T11:50:50.764Z,91.20
2019-03-02T11:53:18.760Z,91.10
2019-03-02T11:55:48.810Z,91.10
2019-03-02T11:58:36.843Z,91.60
2019-03-02T12:01:22.959Z,91.50
2019-03-02T12:04:05.121Z,92.00
2019-03-02T12:06:51.302Z,91.20
2019-03-02T12:09:21.360Z,90.00
2019-03-02T12:11:54.120Z,86.90
2019-03-02T12:14:30.033Z,85.60
2019-03-02T12:17:04.040Z,85.10
2019-03-02T12:19:34.335Z,83.50
2019-03-02T12:22:04.496Z,82.50
2019-03-02T12:24:43.278Z,82.00
2019-03-02T12:27:14.912Z,81.80
2019-03-02T12:29:46.098Z,81.70
2019-03-02T12:32:28.785Z,81.60
2019-03-02T12:35:01.294Z,80.20
2019-03-02T12:37:35.436Z,79.50
2019-03-02T12:40:08.838Z,77.90
2019-03-02T12:42:41.895Z,78.00
2019-03-02T12:45:29.994Z,75.80
2019-03-02T12:48:08.490Z,75.50
2019-03-02T12:50:44.727Z,75.70
2019-03-02T12:53:33.028Z,73.70
2019-03-02T12:56:06.251Z,71.50
2019-03-02T12:58:42.213Z,68.50
2019-03-02T13:01:12.257Z,68.10
2019-03-02T13:03:58.431Z,67.30
2019-03-02T13:06:32.222Z,66.70
2019-03-02T13:09:05.550Z,67.40
2019-03-02T13:11:38.073Z,67.70
2019-03-02T13:14:10.980Z,67.50
2019-03-02T13:16:41.037Z,67.20
2019-03-02T13:19:13.791Z,67.30
2019-03-02T13:21:58.516Z,65.80
2019-03-02T13:24:31.513Z,65.00
2019-03-02T13:27:04.081Z,64.70
2019-03-02T13:29:53.445Z,64.20
2019-03-02T13:32:37.019Z,63.30
2019-03-02T13:35:14.494Z,63.70
2019-03-02T13:37:59.311Z,64.10
2019-03-02T13:40:33.653Z,63.90
2019-03-02T13:43:06.592Z,62.70
2019-03-02T13:45:42.638Z,63.40
2019-03-02T13:48:27.541Z,63.30
2019-03-02T13:51:15.776Z,62.30
2019-03-02T13:54:03.006Z,62.00
2019-03-02T13:56:49.647Z,62.00
2019-03-02T13:59:30.952Z,62.20
2019-03-02T14:02:08.960Z,62.20
2019-03-02T14:04:39.109Z,60.10
2019-03-02T14:07:12.343Z,60.80
2019-03-02T14:09:42.412Z,60.70
2019-03-02T14:12:28.470Z,60.70
2019-03-02T14:15:13.269Z,61.50
2019-03-02T14:17:48.030Z,61.10
2019-03-02T14:20:24.376Z,61.00
2019-03-02T14:23:00.972Z,61.20
2019-03-02T14:25:33.701Z,61.00
2019-03-02T14:28:03.774Z,62.20
2019-03-02T14:30:42.800Z,62.70
2019-03-02T14:33:15.277Z,62.70
2019-03-02T14:35:45.348Z,63.00
2019-03-02T14:38:31.149Z,62.80
2019-03-02T14:41:01.209Z,63.00
2019-03-02T14:43:40.132Z,64.20
2019-03-02T14:46:23.269Z,64.10
2019-03-02T14:48:53.665Z,63.60
2019-03-02T14:51:26.813Z,64.90
2019-03-02T14:53:59.550Z,65.10
2019-03-02T14:56:48.409Z,65.40
2019-03-02T14:59:17.576Z,65.40
2019-03-02T15:01:50.546Z,65.70
2019-03-02T15:04:23.138Z,66.00
2019-03-02T15:07:09.184Z,66.20
2019-03-02T15:09:49.580Z,66.50
2019-03-02T15:12:20.086Z,66.30
2019-03-02T15:14:50.176Z,66.50
2019-03-02T15:17:29.277Z,67.10
2019-03-02T15:19:59.369Z,67.30
2019-03-02T15:22:32.065Z,67.30
2019-03-02T15:25:10.936Z,68.00
2019-03-02T15:27:43.500Z,68.10
2019-03-02T15:30:29.837Z,67.90
2019-03-02T15:32:59.895Z,68.40
2019-03-02T15:35:33.599Z,68.90
2019-03-02T15:38:13.368Z,69.40
2019-03-02T15:40:45.865Z,70.00
2019-03-02T15:43:21.414Z,70.00
2019-03-02T15:46:00.193Z,70.00
2019-03-02T15:48:30.290Z,70.10
2019-03-02T15:51:06.445Z,70.60
2019-03-02T15:53:39.392Z,71.10
2019-03-02T15:56:12.484Z,71.20
2019-03-02T15:58:48.487Z,71.60
2019-03-02T16:01:27.279Z,71.90
2019-03-02T16:04:17.417Z,72.50
2019-03-02T16:07:03.200Z,72.70
2019-03-02T16:09:49.209Z,72.80
2019-03-02T16:12:22.224Z,73.40
2019-03-02T16:15:08.848Z,73.50
2019-03-02T16:17:39.971Z,73.80
2019-03-02T16:20:18.798Z,74.00
2019-03-02T16:22:57.426Z,74.20
2019-03-02T16:25:39.908Z,74.70
2019-03-02T16:28:11.124Z,75.10
2019-03-02T16:30:53.230Z,75.30
2019-03-02T16:33:23.384Z,75.60
2019-03-02T16:35:57.471Z,75.90
2019-03-02T16:38:37.455Z,76.10
2019-03-02T16:41:13.537Z,76.50
2019-03-02T16:43:43.694Z,76.90
2019-03-02T16:46:22.566Z,77.20
2019-03-02T16:48:55.618Z,77.50
2019-03-02T16:51:25.985Z,77.60
2019-03-02T16:54:09.369Z,77.90
2019-03-02T16:56:42.250Z,78.30
2019-03-02T16:59:18.518Z,78.60
2019-03-02T17:01:52.524Z,78.80
2019-03-02T17:04:22.680Z,79.10
2019-03-02T17:07:04.452Z,79.50
2019-03-02T17:09:47.563Z,79.80
2019-03-02T17:12:23.865Z,80.10
2019-03-02T17:15:11.932Z,80.40
2019-03-02T17:17:54.186Z,80.70
2019-03-02T17:20:38.960Z,80.90
2019-03-02T17:23:22.118Z,81.00
2019-03-02T17:25:45.604Z,81.00
2019-03-02T17:28:24.621Z,81.00
2019-03-02T17:30:58.113Z,81.00
2019-03-02T17:33:32.453Z,80.90
2019-03-02T17:36:08.266Z,80.90
2019-03-02T17:38:38.313Z,80.90
2019-03-02T17:41:23.606Z,81.30
2019-03-02T17:44:08.771Z,81.50
2019-03-02T17:46:41.885Z,81.80
2019-03-02T17:49:17.593Z,82.00
2019-03-02T17:51:47.670Z,82.40
2019-03-02T17:54:17.731Z,82.60
2019-03-02T17:56:59.493Z,82.80
2019-03-02T17:59:32.281Z,83.10
2019-03-02T18:02:08.851Z,83.10
2019-03-02T18:04:39.218Z,83.60
2019-03-02T18:07:08.707Z,83.70
2019-03-02T18:09:57.111Z,83.80
2019-03-02T18:12:30.179Z,84.00
2019-03-02T18:15:06.307Z,84.40
2019-03-02T18:17:55.579Z,84.40
2019-03-02T18:20:23.420Z,84.60
2019-03-02T18:22:51.876Z,84.50
2019-03-02T18:25:20.296Z,84.50
2019-03-02T18:27:48.720Z,84.60
2019-03-02T18:30:21.407Z,85.00
2019-03-02T18:32:51.523Z,85.30
2019-03-02T18:35:20.210Z,85.70
2019-03-02T18:37:48.630Z,85.90
2019-03-02T18:40:17.213Z,86.30
2019-03-02T18:42:45.653Z,86.70
2019-03-02T18:45:14.695Z,87.20
2019-03-02T18:47:43.184Z,87.50
2019-03-02T18:50:32.498Z,87.50
2019-03-02T18:53:02.248Z,87.50
2019-03-02T18:55:31.016Z,88.10
2019-03-02T18:57:59.673Z,88.40
2019-03-02T19:00:29.812Z,89.00
2019-03-02T19:02:58.245Z,89.30
2019-03-02T19:05:30.944Z,89.60
2019-03-02T19:08:00.504Z,90.00
2019-03-02T19:10:29.276Z,90.10
2019-03-02T19:12:57.781Z,90.20
2019-03-02T19:15:28.212Z,90.20
2019-03-02T19:18:00.310Z,90.30
2019-03-02T19:20:28.880Z,90.40
2019-03-02T19:22:57.313Z,90.40
2019-03-02T19:25:25.723Z,90.50
2019-03-02T19:27:54.245Z,90.50
2019-03-02T19:30:22.722Z,90.50
2019-03-02T19:32:51.142Z,90.70
2019-03-02T19:35:19.609Z,90.80
2019-03-02T19:37:48.072Z,90.90
2019-03-02T19:40:25.401Z,91.00
2019-03-02T19:42:53.893Z,91.00
2019-03-02T19:45:22.289Z,91.00
2019-03-02T19:47:50.734Z,91.10
2019-03-02T19:50:20.595Z,91.30
2019-03-02T19:52:49.030Z,91.30
2019-03-02T19:55:17.779Z,91.40
2019-03-02T19:57:46.569Z,91.50
2019-03-02T20:00:21.110Z,91.60
2019-03-02T20:02:49.708Z,91.70
2019-03-02T20:05:18.214Z,91.80
2019-03-02T20:07:46.641Z,92.00
2019-03-02T20:10:16.913Z,92.20
2019-03-02T20:12:49.615Z,92.30
2019-03-02T20:15:23.887Z,92.50
2019-03-02T20:17:52.463Z,92.70
2019-03-02T20:20:21.046Z,92.80
2019-03-02T20:22:49.531Z,92.90
2019-03-02T20:25:19.078Z,92.90
2019-03-02T20:27:47.625Z,93.00
2019-03-02T20:30:19.565Z,93.10
2019-03-02T20:32:48.182Z,93.10
2019-03-02T20:35:18.821Z,93.30
2019-03-02T20:37:47.414Z,93.40
2019-03-02T20:40:24.042Z,93.50
2019-03-02T20:42:52.518Z,93.80
2019-03-02T20:45:21.157Z,93.90
2019-03-02T20:47:49.585Z,94.30
2019-03-02T20:50:20.113Z,94.70
2019-03-02T20:52:48.548Z,95.00
2019-03-02T20:55:17.908Z,95.30
2019-03-02T20:57:46.971Z,95.60
2019-03-02T21:00:35.664Z,95.90
2019-03-02T21:03:04.334Z,96.10
2019-03-02T21:05:33.076Z,96.20
2019-03-02T21:08:01.517Z,96.80
2019-03-02T21:10:31.947Z,97.00
2019-03-02T21:13:00.428Z,97.50
2019-03-02T21:15:37.664Z,98.00
2019-03-02T21:18:06.536Z,98.30
2019-03-02T21:20:36.577Z,98.50
2019-03-02T21:23:05.386Z,98.60
2019-03-02T21:25:33.889Z,98.80
2019-03-02T21:28:02.300Z,99.10
2019-03-02T21:30:30.732Z,99.30
2019-03-02T21:32:59.192Z,99.60
2019-03-02T21:35:27.617Z,99.70
2019-03-02T21:37:56.098Z,99.90
2019-03-02T21:40:29.510Z,99.90
2019-03-02T21:42:57.920Z,99.90
2019-03-02T21:45:27.477Z,99.90
2019-03-02T21:47:55.989Z,99.90
2019-03-02T21:50:30.156Z,99.90
2019-03-02T21:52:58.560Z,99.90
2019-03-02T21:55:27.036Z,99.90
2019-03-02T21:57:55.466Z,99.90
2019-03-02T22:00:27.934Z,99.90
2019-03-02T22:02:56.523Z,99.90
2019-03-02T22:05:24.932Z,99.90
2019-03-02T22:07:53.367Z,99.90
2019-03-02T22:10:24.792Z,99.90
2019-03-02T22:12:55.964Z,99.90
2019-03-02T22:15:24.441Z,99.90
2019-03-02T22:17:54.336Z,99.90
2019-03-02T22:20:22.849Z,99.90
2019-03-02T22:22:51.284Z,99.90
2019-03-02T22:25:21.339Z,99.90
2019-03-02T22:27:49.809Z,99.90
2019-03-02T22:30:20.279Z,99.90
2019-03-02T22:32:48.687Z,99.90
2019-03-02T22:35:17.188Z,99.90
2019-03-02T22:37:45.596Z,99.90
2019-03-02T22:40:27.397Z,99.90
2019-03-02T22:42:56.040Z,99.90
2019-03-02T22:45:24.463Z,99.90
2019-03-02T22:47:52.904Z,99.90
2019-03-02T22:50:29.693Z,99.90
2019-03-02T22:52:58.089Z,99.90
2019-03-02T22:55:26.501Z,99.90
2019-03-02T22:57:54.947Z,99.90
2019-03-02T23:00:29.360Z,99.90
2019-03-02T23:02:56.862Z,99.90
2019-03-02T23:05:25.368Z,99.90
2019-03-02T23:07:53.864Z,99.90
2019-03-02T23:10:22.411Z,99.90
2019-03-02T23:12:50.923Z,99.90
2019-03-02T23:15:22.774Z,99.90
2019-03-02T23:17:51.184Z,99.90
2019-03-02T23:20:19.618Z,99.90
2019-03-02T23:22:48.056Z,99.90
2019-03-02T23:25:16.997Z,99.90
2019-03-02T23:27:45.441Z,99.90
2019-03-02T23:30:17.852Z,99.90
2019-03-02T23:32:46.283Z,99.90
2019-03-02T23:35:15.172Z,99.90
2019-03-02T23:37:43.582Z,99.90
2019-03-02T23:40:16.248Z,99.90
2019-03-02T23:42:44.681Z,99.90
2019-03-02T23:45:16.624Z,99.90
2019-03-02T23:47:45.163Z,99.90
2019-03-02T23:50:14.403Z,99.90
2019-03-02T23:52:42.832Z,99.90
2019-03-02T23:55:13.601Z,99.90
2019-03-02T23:57:42.099Z,99.90
